LTR56S ENBR-ENQM
Flight info
| Callsign | LTR56S |
|---|---|
| Flight time | N/A |
| Altitude | 2000 |
| Route | ADADI DCT GINAX KY931 MAMAV DCT MLI |
| Aircraft | A139/L-SDGRWY/S |
Departure
| Time | 2026-04-27 14:18 |
|---|---|
| Airport | Bergen Airport, Flesland (ENBR) |
Arrival
| Time | N/A |
|---|---|
| Airport | Martin Linge A Helipad (ENQM) |
| Time | Latitude | Longitude | Altitude | Speed | Heading |
|---|---|---|---|---|---|
| 2026-04-27 14:02 | 60.29482 | 5.22375 | 152 ft | 0 kts | 54° |
| 2026-04-27 14:13 | 60.29483 | 5.22378 | 152 ft | 1 kts | 51° |
| 2026-04-27 14:13 | 60.29494 | 5.22402 | 152 ft | 4 kts | 50° |
| 2026-04-27 14:14 | 60.29526 | 5.22442 | 151 ft | 4 kts | 352° |
| 2026-04-27 14:14 | 60.29554 | 5.22428 | 151 ft | 4 kts | 330° |
| 2026-04-27 14:14 | 60.29563 | 5.22362 | 151 ft | 5 kts | 261° |
| 2026-04-27 14:14 | 60.29557 | 5.22292 | 151 ft | 7 kts | 261° |
| 2026-04-27 14:15 | 60.29526 | 5.22210 | 151 ft | 7 kts | 202° |
| 2026-04-27 14:15 | 60.29472 | 5.22217 | 152 ft | 9 kts | 172° |
| 2026-04-27 14:15 | 60.29412 | 5.22215 | 153 ft | 6 kts | 219° |
| 2026-04-27 14:15 | 60.29399 | 5.22148 | 153 ft | 6 kts | 261° |
| 2026-04-27 14:16 | 60.29391 | 5.22049 | 153 ft | 5 kts | 261° |
| 2026-04-27 14:16 | 60.29385 | 5.21982 | 152 ft | 5 kts | 259° |
| 2026-04-27 14:16 | 60.29375 | 5.21882 | 152 ft | 9 kts | 262° |
| 2026-04-27 14:16 | 60.29372 | 5.21808 | 152 ft | 2 kts | 286° |
| 2026-04-27 14:17 | 60.29378 | 5.21802 | 152 ft | 0 kts | 355° |
| 2026-04-27 14:17 | 60.29377 | 5.21802 | 164 ft | 2 kts | 354° |
| 2026-04-27 14:17 | 60.29486 | 5.21775 | 286 ft | 46 kts | 352° |
| 2026-04-27 14:17 | 60.29989 | 5.21638 | 490 ft | 93 kts | 354° |
| 2026-04-27 14:18 | 60.30634 | 5.21065 | 715 ft | 114 kts | 320° |
| 2026-04-27 14:18 | 60.31195 | 5.19881 | 1037 ft | 119 kts | 313° |
| 2026-04-27 14:18 | 60.31669 | 5.18490 | 1332 ft | 125 kts | 296° |
| 2026-04-27 14:18 | 60.32136 | 5.16972 | 1572 ft | 131 kts | 309° |
| 2026-04-27 14:19 | 60.32690 | 5.15696 | 1830 ft | 131 kts | 310° |
| 2026-04-27 14:19 | 60.33253 | 5.14237 | 2008 ft | 133 kts | 301° |
| 2026-04-27 14:19 | 60.33655 | 5.12575 | 2041 ft | 131 kts | 294° |
| 2026-04-27 14:19 | 60.34021 | 5.10874 | 2010 ft | 132 kts | 294° |
| 2026-04-27 14:20 | 60.34380 | 5.09190 | 1986 ft | 132 kts | 293° |
| 2026-04-27 14:20 | 60.34745 | 5.07466 | 1930 ft | 136 kts | 293° |
| 2026-04-27 14:20 | 60.35136 | 5.05630 | 1919 ft | 147 kts | 293° |
| 2026-04-27 14:20 | 60.35536 | 5.03737 | 1988 ft | 147 kts | 294° |
| 2026-04-27 14:21 | 60.35938 | 5.01840 | 2016 ft | 147 kts | 294° |
| 2026-04-27 14:21 | 60.36342 | 4.99930 | 2010 ft | 146 kts | 294° |
| 2026-04-27 14:21 | 60.36743 | 4.98041 | 1995 ft | 146 kts | 294° |
| 2026-04-27 14:21 | 60.37143 | 4.96157 | 1982 ft | 147 kts | 294° |
| 2026-04-27 14:22 | 60.37544 | 4.94260 | 1982 ft | 147 kts | 294° |
| 2026-04-27 14:22 | 60.37853 | 4.92310 | 1984 ft | 147 kts | 278° |
| 2026-04-27 14:22 | 60.37985 | 4.90243 | 1990 ft | 147 kts | 279° |
| 2026-04-27 14:22 | 60.38116 | 4.88205 | 1995 ft | 147 kts | 278° |
| 2026-04-27 14:23 | 60.38244 | 4.86159 | 1991 ft | 147 kts | 277° |
| 2026-04-27 14:23 | 60.38372 | 4.84111 | 1986 ft | 147 kts | 277° |
| 2026-04-27 14:23 | 60.38500 | 4.82048 | 1984 ft | 147 kts | 277° |
| 2026-04-27 14:23 | 60.38625 | 4.80018 | 1988 ft | 147 kts | 278° |
| 2026-04-27 14:24 | 60.38751 | 4.77972 | 1991 ft | 146 kts | 278° |
| 2026-04-27 14:24 | 60.38876 | 4.75933 | 1986 ft | 146 kts | 278° |
| 2026-04-27 14:24 | 60.39001 | 4.73895 | 1987 ft | 145 kts | 278° |
| 2026-04-27 14:24 | 60.39124 | 4.71879 | 1976 ft | 145 kts | 278° |
| 2026-04-27 14:25 | 60.39248 | 4.69851 | 1972 ft | 146 kts | 278° |
| 2026-04-27 14:25 | 60.39372 | 4.67805 | 1984 ft | 146 kts | 279° |
| 2026-04-27 14:25 | 60.39496 | 4.65763 | 1991 ft | 147 kts | 278° |
| 2026-04-27 14:25 | 60.39490 | 4.63692 | 1999 ft | 147 kts | 266° |
| 2026-04-27 14:26 | 60.39384 | 4.61637 | 2000 ft | 148 kts | 265° |
| 2026-04-27 14:26 | 60.39280 | 4.59582 | 1997 ft | 147 kts | 265° |
| 2026-04-27 14:26 | 60.39173 | 4.57518 | 1991 ft | 148 kts | 265° |
| 2026-04-27 14:26 | 60.39064 | 4.55452 | 1998 ft | 147 kts | 265° |
| 2026-04-27 14:27 | 60.38956 | 4.53389 | 1998 ft | 147 kts | 265° |
| 2026-04-27 14:27 | 60.38849 | 4.51353 | 1998 ft | 146 kts | 266° |
| 2026-04-27 14:27 | 60.38741 | 4.49312 | 1991 ft | 146 kts | 265° |
| 2026-04-27 14:27 | 60.38634 | 4.47275 | 1985 ft | 147 kts | 266° |
| 2026-04-27 14:28 | 60.38525 | 4.45203 | 1981 ft | 147 kts | 266° |
| 2026-04-27 14:28 | 60.38416 | 4.43171 | 1984 ft | 147 kts | 266° |
| 2026-04-27 14:28 | 60.38306 | 4.41110 | 1990 ft | 147 kts | 266° |
| 2026-04-27 14:28 | 60.38195 | 4.39044 | 1989 ft | 147 kts | 265° |
| 2026-04-27 14:29 | 60.38084 | 4.36995 | 1988 ft | 147 kts | 266° |
| 2026-04-27 14:29 | 60.38162 | 4.34954 | 1992 ft | 146 kts | 281° |
| 2026-04-27 14:29 | 60.38318 | 4.32913 | 1994 ft | 146 kts | 281° |
| 2026-04-27 14:29 | 60.38470 | 4.30892 | 1988 ft | 146 kts | 281° |
| 2026-04-27 14:30 | 60.38625 | 4.28869 | 1985 ft | 146 kts | 280° |
| 2026-04-27 14:30 | 60.38779 | 4.26845 | 1986 ft | 146 kts | 280° |
| 2026-04-27 14:30 | 60.38936 | 4.24824 | 1982 ft | 146 kts | 281° |
| 2026-04-27 14:30 | 60.39091 | 4.22804 | 1979 ft | 146 kts | 281° |
| 2026-04-27 14:31 | 60.39249 | 4.20764 | 1976 ft | 145 kts | 281° |
| 2026-04-27 14:31 | 60.39404 | 4.18752 | 1976 ft | 145 kts | 281° |
| 2026-04-27 14:31 | 60.39556 | 4.16744 | 1975 ft | 145 kts | 281° |
| 2026-04-27 14:31 | 60.39711 | 4.14722 | 1974 ft | 145 kts | 281° |
| 2026-04-27 14:32 | 60.39864 | 4.12707 | 1974 ft | 145 kts | 281° |
| 2026-04-27 14:32 | 60.40017 | 4.10695 | 1976 ft | 145 kts | 281° |
| 2026-04-27 14:32 | 60.40173 | 4.08660 | 1976 ft | 145 kts | 281° |
| 2026-04-27 14:32 | 60.40325 | 4.06645 | 1977 ft | 145 kts | 281° |
| 2026-04-27 14:33 | 60.40477 | 4.04648 | 1976 ft | 145 kts | 281° |
| 2026-04-27 14:33 | 60.40629 | 4.02626 | 1980 ft | 145 kts | 281° |
| 2026-04-27 14:33 | 60.40780 | 4.00612 | 1981 ft | 145 kts | 281° |
| 2026-04-27 14:33 | 60.40933 | 3.98602 | 1979 ft | 145 kts | 281° |
| 2026-04-27 14:34 | 60.41083 | 3.96584 | 1981 ft | 145 kts | 281° |
| 2026-04-27 14:34 | 60.41233 | 3.94574 | 1982 ft | 145 kts | 281° |
| 2026-04-27 14:34 | 60.41385 | 3.92559 | 1983 ft | 145 kts | 281° |
| 2026-04-27 14:34 | 60.41536 | 3.90540 | 1985 ft | 145 kts | 281° |
| 2026-04-27 14:35 | 60.41686 | 3.88528 | 1987 ft | 145 kts | 281° |
| 2026-04-27 14:35 | 60.41835 | 3.86517 | 1990 ft | 145 kts | 281° |
| 2026-04-27 14:35 | 60.41987 | 3.84480 | 1988 ft | 145 kts | 281° |
| 2026-04-27 14:35 | 60.42135 | 3.82467 | 1988 ft | 145 kts | 281° |
| 2026-04-27 14:36 | 60.42284 | 3.80444 | 1992 ft | 145 kts | 281° |
| 2026-04-27 14:36 | 60.42432 | 3.78425 | 1992 ft | 146 kts | 281° |
| 2026-04-27 14:36 | 60.42582 | 3.76396 | 1991 ft | 146 kts | 281° |
| 2026-04-27 14:36 | 60.42731 | 3.74374 | 1989 ft | 146 kts | 281° |
| 2026-04-27 14:37 | 60.42879 | 3.72344 | 1990 ft | 146 kts | 281° |
| 2026-04-27 14:37 | 60.43026 | 3.70323 | 1993 ft | 145 kts | 281° |
| 2026-04-27 14:37 | 60.43173 | 3.68306 | 1990 ft | 145 kts | 281° |
| 2026-04-27 14:37 | 60.43321 | 3.66264 | 1987 ft | 146 kts | 281° |
| 2026-04-27 14:38 | 60.43469 | 3.64237 | 1988 ft | 146 kts | 281° |
| 2026-04-27 14:38 | 60.43616 | 3.62210 | 1991 ft | 146 kts | 281° |
| 2026-04-27 14:38 | 60.43762 | 3.60192 | 1991 ft | 146 kts | 281° |
| 2026-04-27 14:38 | 60.43907 | 3.58156 | 1990 ft | 146 kts | 281° |
| 2026-04-27 14:39 | 60.44054 | 3.56118 | 1993 ft | 146 kts | 281° |
| 2026-04-27 14:39 | 60.44198 | 3.54106 | 1995 ft | 146 kts | 281° |
| 2026-04-27 14:39 | 60.44344 | 3.52066 | 1995 ft | 146 kts | 281° |
| 2026-04-27 14:39 | 60.44488 | 3.50046 | 1993 ft | 146 kts | 281° |
| 2026-04-27 14:40 | 60.44633 | 3.48021 | 1991 ft | 146 kts | 281° |
| 2026-04-27 14:40 | 60.44778 | 3.45968 | 1991 ft | 146 kts | 281° |
| 2026-04-27 14:40 | 60.44923 | 3.43946 | 1994 ft | 146 kts | 281° |
| 2026-04-27 14:40 | 60.45067 | 3.41918 | 1993 ft | 146 kts | 281° |
| 2026-04-27 14:41 | 60.45212 | 3.39865 | 1995 ft | 146 kts | 281° |
| 2026-04-27 14:41 | 60.45354 | 3.37832 | 1995 ft | 146 kts | 281° |
| 2026-04-27 14:41 | 60.45497 | 3.35809 | 1998 ft | 146 kts | 281° |
| 2026-04-27 14:41 | 60.45641 | 3.33748 | 1996 ft | 146 kts | 279° |
| 2026-04-27 14:42 | 60.45783 | 3.31712 | 1990 ft | 146 kts | 280° |
| 2026-04-27 14:42 | 60.45925 | 3.29673 | 1985 ft | 146 kts | 280° |
| 2026-04-27 14:42 | 60.46067 | 3.27656 | 1992 ft | 146 kts | 280° |
| 2026-04-27 14:42 | 60.46209 | 3.25614 | 1992 ft | 146 kts | 280° |
| 2026-04-27 14:43 | 60.46352 | 3.23554 | 1990 ft | 147 kts | 280° |
| 2026-04-27 14:43 | 60.46407 | 3.21492 | 1981 ft | 149 kts | 261° |
| 2026-04-27 14:43 | 60.46490 | 3.19436 | 2006 ft | 146 kts | 283° |
| 2026-04-27 14:43 | 60.46678 | 3.17428 | 2003 ft | 146 kts | 282° |
| 2026-04-27 14:44 | 60.46849 | 3.15393 | 1993 ft | 146 kts | 281° |
| 2026-04-27 14:44 | 60.47008 | 3.13374 | 1980 ft | 146 kts | 281° |
| 2026-04-27 14:44 | 60.47160 | 3.11344 | 1971 ft | 146 kts | 280° |
| 2026-04-27 14:44 | 60.47311 | 3.09289 | 1969 ft | 146 kts | 280° |
| 2026-04-27 14:45 | 60.47456 | 3.07254 | 1973 ft | 146 kts | 280° |
| 2026-04-27 14:45 | 60.47599 | 3.05214 | 1976 ft | 147 kts | 280° |
| 2026-04-27 14:45 | 60.47740 | 3.03184 | 1983 ft | 147 kts | 280° |
| 2026-04-27 14:45 | 60.47881 | 3.01120 | 1983 ft | 147 kts | 280° |
| 2026-04-27 14:46 | 60.48021 | 2.99084 | 1986 ft | 147 kts | 280° |
| 2026-04-27 14:46 | 60.48161 | 2.97013 | 1983 ft | 148 kts | 280° |
| 2026-04-27 14:46 | 60.48302 | 2.94939 | 1989 ft | 148 kts | 279° |
| 2026-04-27 14:46 | 60.48440 | 2.92873 | 2000 ft | 147 kts | 279° |
| 2026-04-27 14:47 | 60.48576 | 2.90839 | 1998 ft | 147 kts | 280° |
| 2026-04-27 14:47 | 60.48715 | 2.88755 | 1997 ft | 147 kts | 279° |
| 2026-04-27 14:47 | 60.48851 | 2.86708 | 1993 ft | 148 kts | 280° |
| 2026-04-27 14:47 | 60.48989 | 2.84651 | 1988 ft | 148 kts | 279° |
| 2026-04-27 14:48 | 60.49120 | 2.82555 | 1989 ft | 149 kts | 276° |
| 2026-04-27 14:48 | 60.49223 | 2.78378 | 1990 ft | 149 kts | 274° |
| 2026-04-27 14:48 | 60.49272 | 2.76279 | 1992 ft | 149 kts | 274° |
| 2026-04-27 14:49 | 60.49320 | 2.74177 | 1993 ft | 149 kts | 274° |
| 2026-04-27 14:49 | 60.49366 | 2.72077 | 2000 ft | 149 kts | 274° |
| 2026-04-27 14:49 | 60.49412 | 2.69975 | 2011 ft | 148 kts | 275° |
| 2026-04-27 14:49 | 60.49459 | 2.67912 | 2006 ft | 148 kts | 275° |
| 2026-04-27 14:50 | 60.49505 | 2.65809 | 1986 ft | 149 kts | 275° |
| 2026-04-27 14:50 | 60.49552 | 2.63706 | 2000 ft | 149 kts | 274° |
| 2026-04-27 14:50 | 60.49597 | 2.61610 | 1992 ft | 149 kts | 274° |
| 2026-04-27 14:50 | 60.49641 | 2.59513 | 1992 ft | 149 kts | 274° |
| 2026-04-27 14:51 | 60.49686 | 2.57421 | 2007 ft | 148 kts | 274° |
| 2026-04-27 14:51 | 60.49730 | 2.55320 | 2005 ft | 148 kts | 274° |
| 2026-04-27 14:51 | 60.49774 | 2.53251 | 2004 ft | 148 kts | 274° |
| 2026-04-27 14:51 | 60.49803 | 2.51841 | 2004 ft | 148 kts | 274° |
| 2026-04-27 14:52 | 60.49860 | 2.49045 | 2003 ft | 149 kts | 274° |
| 2026-04-27 14:52 | 60.49903 | 2.46966 | 2014 ft | 149 kts | 274° |
| 2026-04-27 14:52 | 60.49944 | 2.44885 | 2013 ft | 149 kts | 274° |
| 2026-04-27 14:52 | 60.49986 | 2.42768 | 2005 ft | 149 kts | 274° |
| 2026-04-27 14:53 | 60.50028 | 2.40673 | 2000 ft | 148 kts | 274° |
| 2026-04-27 14:53 | 60.50070 | 2.38604 | 1992 ft | 149 kts | 274° |
| 2026-04-27 14:53 | 60.50112 | 2.36485 | 1994 ft | 149 kts | 274° |
| 2026-04-27 14:53 | 60.50153 | 2.34396 | 1998 ft | 149 kts | 273° |
| 2026-04-27 14:54 | 60.50193 | 2.32279 | 1996 ft | 149 kts | 273° |
| 2026-04-27 14:54 | 60.50234 | 2.30188 | 1997 ft | 150 kts | 273° |
| 2026-04-27 14:54 | 60.50274 | 2.28090 | 2004 ft | 149 kts | 272° |
| 2026-04-27 14:54 | 60.50313 | 2.25980 | 2003 ft | 149 kts | 272° |
| 2026-04-27 14:55 | 60.50353 | 2.23887 | 1997 ft | 149 kts | 272° |
| 2026-04-27 14:55 | 60.50391 | 2.21787 | 1996 ft | 149 kts | 272° |
| 2026-04-27 14:55 | 60.50429 | 2.19692 | 1996 ft | 149 kts | 273° |
| 2026-04-27 14:55 | 60.50468 | 2.17591 | 1995 ft | 149 kts | 273° |
| 2026-04-27 14:56 | 60.51050 | 2.15913 | 1710 ft | 161 kts | 332° |
| 2026-04-27 14:56 | 60.51975 | 2.14760 | 1442 ft | 147 kts | 338° |
| 2026-04-27 14:56 | 60.58490 | 2.10993 | 1305 ft | 127 kts | 339° |